sim
Sign-in with your pilot id or email,
or register
Callsign
Passwort

Schedule Details

Flight Number: OEO7468
Departure: Vienna International Airport (LOWW) at 04:00
Arrival: Fuerteventura Airport (GCFV) at 09:30

Weather Information
Getting current METAR information for LOWW 222150Z 26006KT CAVOK 24/12 Q1021 NOSIG
Getting current METAR information for GCFV 222200Z 35016KT CAVOK 22/17 Q1018

Schedule Frequency

Route Map